createdAt,value
2023-04-11T00:02:39.441Z,100424.03
2023-04-11T00:05:42.365Z,100404.16
2023-04-11T00:08:50.840Z,100417.66
2023-04-11T00:11:53.442Z,100407.97
2023-04-11T00:14:56.408Z,100405.53
2023-04-11T00:17:59.078Z,100403.00
2023-04-11T00:21:01.965Z,100381.13
2023-04-11T00:24:04.694Z,100401.06
2023-04-11T00:27:07.462Z,100386.38
2023-04-11T00:30:10.407Z,100394.91
2023-04-11T00:33:12.956Z,100387.59
2023-04-11T00:36:15.775Z,100376.91
2023-04-11T00:39:18.742Z,100370.91
2023-04-11T00:42:24.274Z,100367.19
2023-04-11T00:45:29.620Z,100375.84
2023-04-11T00:48:34.000Z,100351.81
2023-04-11T00:51:36.599Z,100382.19
2023-04-11T00:54:39.619Z,100362.97
2023-04-11T00:57:43.191Z,100376.66
2023-04-11T01:00:50.087Z,100372.72
2023-04-11T01:03:53.031Z,100377.53
2023-04-11T01:07:04.134Z,100370.88
2023-04-11T01:10:08.127Z,100382.59
2023-04-11T01:13:11.123Z,100369.63
2023-04-11T01:16:15.472Z,100360.91
2023-04-11T01:19:22.113Z,100360.88
2023-04-11T01:22:25.751Z,100359.56
2023-04-11T01:25:29.722Z,100374.03
2023-04-11T01:28:32.337Z,100362.09
2023-04-11T01:31:39.191Z,100359.72
2023-04-11T01:34:42.618Z,100362.78
2023-04-11T01:37:45.447Z,100352.88
2023-04-11T01:40:48.175Z,100358.81
2023-04-11T01:43:50.795Z,100346.34
2023-04-11T01:46:53.758Z,100331.09
2023-04-11T01:49:57.923Z,100353.56
2023-04-11T01:53:00.482Z,100347.31
2023-04-11T01:56:08.462Z,100339.25
2023-04-11T01:59:11.162Z,100341.38
2023-04-11T02:02:15.501Z,100335.91
2023-04-11T02:05:19.062Z,100322.06
2023-04-11T02:08:21.591Z,100329.72
2023-04-11T02:11:24.124Z,100313.13
2023-04-11T02:14:27.266Z,100297.63
2023-04-11T02:17:31.347Z,100309.66
2023-04-11T02:20:34.239Z,100300.31
2023-04-11T02:23:37.312Z,100312.09
2023-04-11T02:26:46.336Z,100312.13
2023-04-11T02:29:48.920Z,100308.84
2023-04-11T02:32:53.238Z,100309.81
2023-04-11T02:35:55.994Z,100311.75
2023-04-11T02:38:58.607Z,100324.38
2023-04-11T02:42:03.126Z,100319.31
2023-04-11T02:45:06.188Z,100311.69
2023-04-11T02:48:08.843Z,100308.59
2023-04-11T02:51:17.328Z,100319.03
2023-04-11T02:54:20.028Z,100321.38
2023-04-11T02:57:25.191Z,100327.00
2023-04-11T03:00:30.048Z,100314.94
2023-04-11T03:03:38.988Z,100305.59
2023-04-11T03:06:41.821Z,100306.50
2023-04-11T03:09:44.627Z,100311.75
2023-04-11T03:12:47.298Z,100301.28
2023-04-11T03:15:50.108Z,100308.03
2023-04-11T03:18:56.859Z,100291.47
2023-04-11T03:22:02.174Z,100295.22
2023-04-11T03:25:10.803Z,100290.06
2023-04-11T03:28:14.487Z,100286.72
2023-04-11T03:31:17.875Z,100276.31
2023-04-11T03:34:22.017Z,100263.34
2023-04-11T03:37:25.538Z,100285.22
2023-04-11T03:40:28.266Z,100281.38
2023-04-11T03:43:41.900Z,100275.63
2023-04-11T03:46:48.360Z,100309.53
2023-04-11T03:49:54.596Z,100294.00
2023-04-11T03:52:58.008Z,100298.03
2023-04-11T03:56:01.643Z,100295.81
2023-04-11T03:59:10.244Z,100291.28
2023-04-11T04:02:24.587Z,100288.47
2023-04-11T04:05:28.545Z,100289.03
2023-04-11T04:08:32.133Z,100291.66
2023-04-11T04:11:37.915Z,100293.75
2023-04-11T04:14:40.703Z,100268.72
2023-04-11T04:17:45.157Z,100293.13
2023-04-11T04:20:54.128Z,100283.28
2023-04-11T04:24:03.757Z,100298.88
2023-04-11T04:27:26.776Z,100293.69
2023-04-11T04:30:30.269Z,100280.19
2023-04-11T04:33:49.594Z,100276.94
2023-04-11T04:36:59.827Z,100277.75
2023-04-11T04:40:14.254Z,100259.03
2023-04-11T04:43:28.732Z,100279.28
2023-04-11T04:46:44.745Z,100244.19
2023-04-11T04:49:47.632Z,100263.56
2023-04-11T04:52:51.771Z,100278.56
2023-04-11T04:55:54.572Z,100284.63
2023-04-11T04:58:58.316Z,100291.47
2023-04-11T05:02:01.533Z,100285.50
2023-04-11T05:05:07.882Z,100280.63
2023-04-11T05:08:18.447Z,100283.44
2023-04-11T05:11:24.930Z,100269.09
2023-04-11T05:14:30.105Z,100262.19
2023-04-11T05:17:32.816Z,100278.34
2023-04-11T05:20:35.485Z,100283.97
2023-04-11T05:23:38.182Z,100258.22
2023-04-11T05:26:41.909Z,100268.63
2023-04-11T05:29:46.305Z,100273.88
2023-04-11T05:32:54.076Z,100254.75
2023-04-11T05:35:57.138Z,100263.56
2023-04-11T05:38:59.715Z,100251.56
2023-04-11T05:42:07.877Z,100264.63
2023-04-11T05:45:11.062Z,100254.47
2023-04-11T05:48:15.999Z,100277.34
2023-04-11T05:51:18.849Z,100274.44
2023-04-11T05:54:36.237Z,100266.19
2023-04-11T05:57:38.823Z,100258.50
2023-04-11T06:00:42.152Z,100256.53
2023-04-11T06:03:54.234Z,100229.28
2023-04-11T06:06:56.986Z,100251.28
2023-04-11T06:09:59.669Z,100252.91
2023-04-11T06:13:04.391Z,100257.34
2023-04-11T06:16:07.705Z,100238.34
2023-04-11T06:19:13.581Z,100238.03
2023-04-11T06:22:16.928Z,100233.19
2023-04-11T06:25:20.784Z,100229.56
2023-04-11T06:28:23.320Z,100226.97
2023-04-11T06:31:26.504Z,100216.94
2023-04-11T06:34:29.166Z,100232.28
2023-04-11T06:37:31.802Z,100225.66
2023-04-11T06:40:34.635Z,100231.63
2023-04-11T06:43:37.323Z,100234.38
2023-04-11T06:46:40.177Z,100205.84
2023-04-11T06:49:45.947Z,100199.59
2023-04-11T06:52:48.631Z,100168.94
2023-04-11T06:55:54.720Z,100199.63
2023-04-11T06:58:57.420Z,100208.19
2023-04-11T07:02:00.098Z,100210.66
2023-04-11T07:05:06.434Z,100219.47
2023-04-11T07:08:09.046Z,100214.47
2023-04-11T07:11:12.099Z,100207.66
2023-04-11T07:14:14.734Z,100218.72
2023-04-11T07:17:17.351Z,100204.25
2023-04-11T07:20:20.028Z,100215.75
2023-04-11T07:23:23.825Z,100207.22
2023-04-11T07:26:32.022Z,100223.34
2023-04-11T07:29:34.587Z,100214.09
2023-04-11T07:32:37.339Z,100211.75
2023-04-11T07:35:39.946Z,100199.97
2023-04-11T07:38:42.735Z,100207.72
2023-04-11T07:41:48.145Z,100192.06
2023-04-11T07:44:50.770Z,100165.09
2023-04-11T07:47:53.431Z,100174.34
2023-04-11T07:50:56.234Z,100176.63
2023-04-11T07:53:58.867Z,100149.28
2023-04-11T07:57:02.286Z,100168.72
2023-04-11T08:00:05.601Z,100175.31
2023-04-11T08:03:17.109Z,100172.63
2023-04-11T08:06:19.925Z,100173.56
2023-04-11T08:09:24.230Z,100169.22
2023-04-11T08:12:28.730Z,100160.22
2023-04-11T08:15:37.558Z,100137.25
2023-04-11T08:18:42.761Z,100143.41
2023-04-11T08:21:48.433Z,100111.78
2023-04-11T08:24:52.930Z,100127.88
2023-04-11T08:27:55.538Z,100122.44
2023-04-11T08:30:58.620Z,100114.13
2023-04-11T08:34:02.630Z,100097.81
2023-04-11T08:37:06.435Z,100098.53
2023-04-11T08:40:09.604Z,100087.91
2023-04-11T08:43:12.467Z,100080.00
2023-04-11T08:46:15.383Z,100086.53
2023-04-11T08:49:18.002Z,100081.00
2023-04-11T08:52:21.067Z,100082.03
2023-04-11T08:55:29.162Z,100092.50
2023-04-11T08:58:33.231Z,100086.63
2023-04-11T09:01:41.633Z,100070.47
2023-04-11T09:04:45.051Z,100069.13
2023-04-11T09:07:51.873Z,100076.38
2023-04-11T09:11:01.131Z,100075.84
2023-04-11T09:14:11.330Z,100061.06
2023-04-11T09:17:16.077Z,100076.91
2023-04-11T09:20:26.346Z,100072.94
2023-04-11T09:23:29.144Z,100076.22
2023-04-11T09:26:31.711Z,100072.28
2023-04-11T09:29:42.718Z,100064.97
2023-04-11T09:32:48.880Z,100065.44
2023-04-11T09:35:57.585Z,100061.66
2023-04-11T09:39:02.255Z,100055.47
2023-04-11T09:42:27.694Z,100026.94
2023-04-11T09:45:38.165Z,100046.69
2023-04-11T09:48:48.593Z,100025.25
2023-04-11T09:51:51.949Z,100031.06
2023-04-11T09:54:54.685Z,100017.53
2023-04-11T09:58:00.213Z,100022.25
2023-04-11T10:01:04.125Z,100013.66
2023-04-11T10:04:06.827Z,100012.59
2023-04-11T10:07:14.242Z,100006.28
2023-04-11T10:10:22.496Z,99998.25
2023-04-11T10:13:42.092Z,100002.59
2023-04-11T10:17:21.990Z,99991.84
2023-04-11T10:20:46.130Z,99988.09
2023-04-11T10:24:13.479Z,99977.16
2023-04-11T10:27:38.341Z,99971.50
2023-04-11T10:30:40.921Z,99969.91
2023-04-11T10:34:12.357Z,99959.19
2023-04-11T10:37:19.536Z,99959.69
2023-04-11T10:40:22.986Z,99950.03
2023-04-11T10:43:25.852Z,99954.31
2023-04-11T10:46:28.515Z,99940.66
2023-04-11T10:49:34.734Z,99923.22
2023-04-11T10:52:39.474Z,99928.09
2023-04-11T10:55:48.670Z,99935.59
2023-04-11T10:58:53.570Z,99928.59
2023-04-11T11:01:56.283Z,99916.00
2023-04-11T11:05:00.439Z,99921.53
2023-04-11T11:08:03.151Z,99919.97
2023-04-11T11:11:07.042Z,99923.19
2023-04-11T11:14:09.606Z,99916.78
2023-04-11T11:17:13.877Z,99906.31
2023-04-11T11:20:20.063Z,99920.03
2023-04-11T11:23:22.838Z,99906.00
2023-04-11T11:26:37.536Z,99908.91
2023-04-11T11:29:40.141Z,99897.31
2023-04-11T11:32:42.732Z,99895.13
2023-04-11T11:35:55.651Z,99871.00
2023-04-11T11:38:58.298Z,99894.28
2023-04-11T11:42:02.328Z,99892.41
2023-04-11T11:45:16.208Z,99898.94
2023-04-11T11:48:27.779Z,99896.88
2023-04-11T11:51:49.668Z,99879.75
2023-04-11T11:54:52.680Z,99887.78
2023-04-11T11:57:59.133Z,99895.56
2023-04-11T12:01:01.901Z,99884.59
2023-04-11T12:04:11.686Z,99901.75
2023-04-11T12:07:14.863Z,99908.16
2023-04-11T12:10:17.565Z,99905.47
2023-04-11T12:13:23.517Z,99896.59
2023-04-11T12:16:26.274Z,99900.34
2023-04-11T12:19:34.675Z,99892.56
2023-04-11T12:22:38.288Z,99897.06
2023-04-11T12:25:43.847Z,99904.88
2023-04-11T12:28:46.611Z,99889.78
2023-04-11T12:31:49.272Z,99892.41
2023-04-11T12:34:52.640Z,99884.91
2023-04-11T12:37:55.922Z,99883.75
2023-04-11T12:41:26.244Z,99873.13
2023-04-11T12:44:23.546Z,99871.47
2023-04-11T12:47:26.149Z,99864.25
2023-04-11T12:50:28.827Z,99857.78
2023-04-11T12:53:31.426Z,99854.59
2023-04-11T12:56:34.109Z,99845.22
2023-04-11T12:59:36.668Z,99840.19
2023-04-11T13:02:43.769Z,99828.66
2023-04-11T13:05:47.381Z,99837.56
2023-04-11T13:08:50.680Z,99834.31
2023-04-11T13:11:53.640Z,99834.03
2023-04-11T13:14:57.064Z,99820.03
2023-04-11T13:18:03.206Z,99822.72
2023-04-11T13:21:06.311Z,99828.94
2023-04-11T13:24:08.938Z,99825.56
2023-04-11T13:27:14.432Z,99832.78
2023-04-11T13:30:17.085Z,99829.63
2023-04-11T13:33:19.896Z,99820.78
2023-04-11T13:36:22.799Z,99828.28
2023-04-11T13:39:25.518Z,99832.03
2023-04-11T13:42:28.105Z,99837.91
2023-04-11T13:45:31.308Z,99829.88
2023-04-11T13:48:33.920Z,99832.28
2023-04-11T13:51:36.528Z,99835.72
2023-04-11T13:54:39.317Z,99840.78
2023-04-11T13:57:42.286Z,99838.34
2023-04-11T14:00:48.899Z,99841.00
2023-04-11T14:03:54.489Z,99846.31
2023-04-11T14:06:57.414Z,99833.88
2023-04-11T14:10:00.207Z,99843.50
2023-04-11T14:13:02.992Z,99856.22
2023-04-11T14:16:09.206Z,99877.00
2023-04-11T14:19:14.871Z,99898.72
2023-04-11T14:22:17.786Z,99897.47
2023-04-11T14:25:24.218Z,99914.28
2023-04-11T14:28:27.323Z,99942.88
2023-04-11T14:31:30.589Z,99924.59
2023-04-11T14:34:33.270Z,99959.13
2023-04-11T14:37:36.788Z,99938.25
2023-04-11T14:40:39.396Z,99917.56
2023-04-11T14:43:41.994Z,99885.00
2023-04-11T14:46:44.607Z,99881.75
2023-04-11T14:49:47.235Z,99864.25
2023-04-11T14:52:52.044Z,99867.94
2023-04-11T14:55:54.663Z,99862.25
2023-04-11T14:58:57.297Z,99845.44
2023-04-11T15:02:00.095Z,99854.44
2023-04-11T15:05:03.601Z,99853.22
2023-04-11T15:08:06.470Z,99856.56
2023-04-11T15:11:09.108Z,99817.94
2023-04-11T15:14:14.668Z,99836.63
2023-04-11T15:17:17.322Z,99825.78
2023-04-11T15:20:20.190Z,99817.47
2023-04-11T15:23:22.990Z,99819.72
2023-04-11T15:26:25.851Z,99826.09
2023-04-11T15:29:28.478Z,99846.81
2023-04-11T15:32:31.162Z,99834.13
2023-04-11T15:35:33.771Z,99828.16
2023-04-11T15:38:37.034Z,99838.56
2023-04-11T15:41:39.689Z,99852.69
2023-04-11T15:44:42.730Z,99826.22
2023-04-11T15:47:45.624Z,99849.22
2023-04-11T15:50:48.291Z,99857.22
2023-04-11T15:53:50.928Z,99865.16
2023-04-11T15:56:53.687Z,99867.41
2023-04-11T15:59:56.302Z,99888.06
2023-04-11T16:03:03.145Z,99881.63
2023-04-11T16:06:06.456Z,99873.56
2023-04-11T16:09:09.149Z,99886.47
2023-04-11T16:12:11.839Z,99886.22
2023-04-11T16:15:14.680Z,99881.03
2023-04-11T16:18:17.275Z,99889.69
2023-04-11T16:21:19.927Z,99877.56
2023-04-11T16:24:22.559Z,99876.56
2023-04-11T16:27:25.274Z,99871.28
2023-04-11T16:30:28.096Z,99874.94
2023-04-11T16:33:33.556Z,99874.03
2023-04-11T16:36:38.706Z,99855.53
2023-04-11T16:39:41.540Z,99852.53
2023-04-11T16:42:44.134Z,99848.16
2023-04-11T16:45:46.921Z,99868.56
2023-04-11T16:48:49.539Z,99862.47
2023-04-11T16:51:52.294Z,99851.34
2023-04-11T16:54:54.913Z,99851.91
2023-04-11T16:57:57.663Z,99842.75
2023-04-11T17:01:01.527Z,99846.06
2023-04-11T17:04:04.383Z,99847.53
2023-04-11T17:07:07.209Z,99843.59
2023-04-11T17:10:10.337Z,99844.13
2023-04-11T17:13:17.473Z,99832.41
2023-04-11T17:16:20.184Z,99836.16
2023-04-11T17:19:25.787Z,99847.22
2023-04-11T17:22:31.764Z,99853.19
2023-04-11T17:25:37.526Z,99851.88
2023-04-11T17:28:41.046Z,99849.63
2023-04-11T17:31:45.938Z,99845.31
2023-04-11T17:34:48.718Z,99863.97
2023-04-11T17:37:56.646Z,99861.53
2023-04-11T17:41:13.505Z,99861.06
2023-04-11T17:44:17.976Z,99858.72
2023-04-11T17:47:20.678Z,99844.25
2023-04-11T17:50:23.295Z,99861.25
2023-04-11T17:53:28.312Z,99862.91
2023-04-11T17:56:34.017Z,99853.56
2023-04-11T17:59:36.662Z,99866.91
2023-04-11T18:02:42.476Z,99850.16
2023-04-11T18:05:49.028Z,99875.00
2023-04-11T18:08:54.471Z,99890.16
2023-04-11T18:11:57.437Z,99886.81
2023-04-11T18:14:59.942Z,99871.44
2023-04-11T18:18:09.802Z,99884.94
2023-04-11T18:21:12.565Z,99886.44
2023-04-11T18:24:18.050Z,99902.63
2023-04-11T18:27:20.565Z,99899.97
2023-04-11T18:30:23.306Z,99895.47
2023-04-11T18:33:26.245Z,99908.63
2023-04-11T18:36:31.593Z,99898.56
2023-04-11T18:39:34.368Z,99892.81
2023-04-11T18:42:45.659Z,99890.72
2023-04-11T18:45:51.585Z,99885.06
2023-04-11T18:48:57.207Z,99894.09
2023-04-11T18:51:59.823Z,99890.94
2023-04-11T18:55:03.470Z,99895.81
2023-04-11T18:58:09.152Z,99884.59
2023-04-11T19:01:16.439Z,99903.31
2023-04-11T19:04:20.696Z,99897.75
2023-04-11T19:07:25.024Z,99910.72
2023-04-11T19:10:27.731Z,99917.31
2023-04-11T19:13:30.498Z,99924.25
2023-04-11T19:16:36.349Z,99926.56
2023-04-11T19:19:39.079Z,99925.53
2023-04-11T19:22:42.052Z,99935.59
2023-04-11T19:25:45.437Z,99932.13
2023-04-11T19:28:48.193Z,99930.72
2023-04-11T19:31:51.249Z,99918.59
2023-04-11T19:34:53.917Z,99915.47
2023-04-11T19:37:56.490Z,99935.00
2023-04-11T19:41:19.644Z,99924.63
2023-04-11T19:44:22.189Z,99931.66
2023-04-11T19:47:28.616Z,99914.66
2023-04-11T19:50:31.556Z,99904.81
2023-04-11T19:53:35.201Z,99914.75
2023-04-11T19:56:39.254Z,99930.63
2023-04-11T19:59:41.781Z,99923.31
2023-04-11T20:02:46.357Z,99914.69
2023-04-11T20:05:49.947Z,99917.91
2023-04-11T20:08:56.037Z,99904.75
2023-04-11T20:12:00.183Z,99942.31
2023-04-11T20:15:03.428Z,99932.38
2023-04-11T20:18:06.046Z,99922.56
2023-04-11T20:21:12.095Z,99905.41
2023-04-11T20:24:15.519Z,99918.13
2023-04-11T20:27:18.230Z,99929.00
2023-04-11T20:30:23.648Z,99927.28
2023-04-11T20:33:26.731Z,99932.34
2023-04-11T20:36:33.866Z,99923.41
2023-04-11T20:39:37.112Z,99924.66
2023-04-11T20:42:42.902Z,99913.56
2023-04-11T20:45:45.945Z,99934.47
2023-04-11T20:48:49.976Z,99927.84
2023-04-11T20:51:53.811Z,99937.66
2023-04-11T20:54:56.414Z,99938.22
2023-04-11T20:58:01.177Z,99937.06
2023-04-11T21:01:03.903Z,99923.25
2023-04-11T21:04:07.113Z,99921.34
2023-04-11T21:07:09.755Z,99901.59
2023-04-11T21:10:12.749Z,99900.97
2023-04-11T21:13:21.217Z,99923.31
2023-04-11T21:16:26.852Z,99902.56
2023-04-11T21:19:29.475Z,99916.09
2023-04-11T21:22:33.752Z,99895.47
2023-04-11T21:25:37.194Z,99917.25
2023-04-11T21:28:42.448Z,99909.13
2023-04-11T21:31:45.150Z,99910.31
2023-04-11T21:34:47.721Z,99906.34
2023-04-11T21:37:50.353Z,99905.16
2023-04-11T21:40:52.939Z,99924.94
2023-04-11T21:43:55.785Z,99922.94
2023-04-11T21:46:59.025Z,99912.06
2023-04-11T21:50:01.756Z,99929.59
2023-04-11T21:53:07.534Z,99925.09
2023-04-11T21:56:10.481Z,99928.97
2023-04-11T21:59:13.108Z,99942.66
2023-04-11T22:02:15.852Z,99934.19
2023-04-11T22:05:19.423Z,99938.84
2023-04-11T22:08:22.685Z,99931.19
2023-04-11T22:11:27.687Z,99939.94
2023-04-11T22:14:30.316Z,99947.91
2023-04-11T22:17:33.044Z,99948.75
2023-04-11T22:20:43.831Z,99930.78
2023-04-11T22:23:50.145Z,99935.53
2023-04-11T22:26:53.976Z,99954.66
2023-04-11T22:29:56.568Z,99947.56
2023-04-11T22:32:59.197Z,99928.47
2023-04-11T22:36:02.983Z,99925.81
2023-04-11T22:39:07.022Z,99945.91
2023-04-11T22:42:11.685Z,99927.00
2023-04-11T22:45:14.337Z,99952.13
2023-04-11T22:48:19.380Z,99928.47
2023-04-11T22:51:27.030Z,99943.53
2023-04-11T22:54:29.625Z,99919.00
2023-04-11T22:57:34.328Z,99936.31
2023-04-11T23:00:38.570Z,99919.09
2023-04-11T23:03:42.227Z,99936.97
2023-04-11T23:06:49.442Z,99928.84
2023-04-11T23:09:52.755Z,99934.72
2023-04-11T23:12:58.179Z,99928.66
2023-04-11T23:16:01.039Z,99927.50
2023-04-11T23:19:04.124Z,99934.63
2023-04-11T23:22:06.668Z,99919.38
2023-04-11T23:25:17.132Z,99936.25
2023-04-11T23:28:19.854Z,99927.72
2023-04-11T23:31:25.227Z,99938.09
2023-04-11T23:34:30.776Z,99929.56
2023-04-11T23:37:33.336Z,99922.66
2023-04-11T23:40:39.494Z,99927.09
2023-04-11T23:43:42.094Z,99913.75
2023-04-11T23:46:44.726Z,99914.09
2023-04-11T23:49:47.320Z,99895.41
2023-04-11T23:52:50.142Z,99912.66
2023-04-11T23:56:01.851Z,99901.50
2023-04-11T23:59:07.419Z,99888.69
